Lyndhurst, NJ (07071)

9:41 PM EDT on July 25, 2016 (GMT -0400)
North Arlington EMS | | Change Station

Elev 27 ft 40.79 °N, 74.12 °W | Updated 3 seconds ago

Light Rain
Light Rain
76.7 °F
Feels Like 77 °F
N
0.0
Wind Variable Wind from SE
Gusts 0.0 mph

Today
High -- | Low -- °F
--% Chance of Precip.
Yesterday
High -- | Low -- °F
Precip. -- in
Pressure 29.86 in
Visibility 10.0 miles
Clouds Few 11000 ft
Heat Index 77 °F
Dew Point 76 °F
Humidity 97%
Rainfall 0.72 in
Snow Depth Not available.
5:46 AM 8:18 PM
Waning Gibbous, 60% visible
METAR KTEB 260051Z 20004KT 10SM -RA FEW110 24/22 A2986 RMK AO2 RAB38 SLP110 P0000 T02440217
Pressure 29.86 in
Visibility 10.0 miles
Clouds Few 11000 ft
Heat Index 77 °F
Dew Point 76 °F
Humidity 97%
Rainfall 0.72 in
Snow Depth Not available.
5:46 AM 8:18 PM
Waning Gibbous, 60% visible
METAR KTEB 260051Z 20004KT 10SM -RA FEW110 24/22 A2986 RMK AO2 RAB38 SLP110 P0000 T02440217
Record highs are possible for parts of the Northeast Monday and Tuesday, as parts of the central U.S. take a little breather from the worst of summer's dog day heat.

Expansive high pressure in the upper atmosphere will focus on parts of the East and West this week, sending heat indices well into the triple digits from the Mid-Atlantic states into the South.

10-Day Weather Forecast

Almanac

Astronomy

Jul. 25, 2016 Rise Set
Actual Time
Civil Twilight
Nautical Twilight
Astronomical Twilight
Moon
Length of Visible Light
Length of Day
Tomorrow will be .
, % of the Moon is Illuminated

Today's Extremes

State Highs State Lows

Community

WunderPhotos

Upload Photos

1,927,497 photos uploaded!

WunderBlog® & News

Nearby

Air Quality

  Air Quality AQ Index Pollutant
Not available.

Snow Depth

Station Depth Elevation

Earthquake Activity

City Distance Mag. Time & Date
Minimum magnitude displayed is 2.5.

Coastal Water Temperatures

Place Temperature

Stations

Nearby Weather Stations

Station Location Temp. Windchill Dew Point Humidity Wind Precip. Elev Updated Type
                   

Watches & Warnings

There are currently no watches in effect.